Time;durP1;ratioP1;P1;durP2;ratioP2;P2;SDS_P1;SDS_P2;PMS_P1;PMS_P2;Temp;Humidity;BMP_temperature;BMP_pressure;BME280_temperature;BME280_humidity;BME280_pressure;Samples;Min_cycle;Max_cycle;Signal;HPM_P1;HPM_P2
2022/12/08 00:01:09;;;;;;;15.07;6.43;;;0.80;99.90;;;;;;5203527;28;20446;-49
2022/12/08 00:03:41;;;;;;;7.53;6.50;;;0.80;99.90;;;;;;5223190;28;20709;-48
2022/12/08 00:09:22;;;;;;;11.10;6.23;;;0.80;99.90;;;;;;5218404;28;20444;-50
2022/12/08 00:11:57;;;;;;;11.77;6.43;;;0.80;99.90;;;;;;5222453;28;20506;-52
2022/12/08 00:14:31;;;;;;;8.53;6.47;;;0.80;99.90;;;;;;5206065;28;20417;-49
2022/12/08 00:17:03;;;;;;;8.70;6.13;;;0.80;99.90;;;;;;5220381;28;20473;-48
2022/12/08 00:19:33;;;;;;;9.47;6.90;;;0.70;99.90;;;;;;5200105;28;20445;-47
2022/12/08 00:22:05;;;;;;;13.30;7.20;;;0.70;99.90;;;;;;5217105;28;20425;-50
2022/12/08 00:24:38;;;;;;;8.93;5.67;;;0.90;99.90;;;;;;5198567;28;20609;-48
2022/12/08 00:27:11;;;;;;;9.33;5.93;;;0.90;99.90;;;;;;5215461;28;20472;-47
2022/12/08 00:29:45;;;;;;;11.23;7.20;;;0.90;99.90;;;;;;5198870;28;20892;-51
2022/12/08 00:32:15;;;;;;;12.60;7.43;;;0.90;99.90;;;;;;5220177;28;20502;-48
2022/12/08 00:34:47;;;;;;;9.50;6.03;;;0.90;99.90;;;;;;5218690;28;20528;-50
2022/12/08 00:37:17;;;;;;;7.90;6.20;;;1.00;99.90;;;;;;5205402;28;20784;-48
2022/12/08 00:39:48;;;;;;;10.03;6.70;;;1.00;99.90;;;;;;5223167;28;20429;-49
2022/12/08 00:42:18;;;;;;;12.83;6.50;;;1.00;99.90;;;;;;5208703;28;20589;-47
2022/12/08 00:44:50;;;;;;;9.27;6.37;;;1.00;99.90;;;;;;5204908;28;20184;-51
2022/12/08 00:47:21;;;;;;;7.10;6.30;;;1.00;99.90;;;;;;5205377;28;20291;-49
2022/12/08 00:49:51;;;;;;;13.43;6.87;;;1.00;99.90;;;;;;5237448;28;20547;-47
2022/12/08 00:52:22;;;;;;;15.47;7.10;;;1.00;99.90;;;;;;5204953;28;20194;-48
2022/12/08 00:54:53;;;;;;;7.70;6.13;;;1.00;99.90;;;;;;5209885;28;20195;-48
2022/12/08 00:57:23;;;;;;;12.67;7.57;;;1.10;99.90;;;;;;5230187;28;20300;-46
2022/12/08 00:59:54;;;;;;;8.30;6.10;;;1.10;99.90;;;;;;5206046;28;20675;-48
2022/12/08 01:02:28;;;;;;;16.73;7.90;;;1.10;99.90;;;;;;5212430;28;20179;-48
2022/12/08 01:04:59;;;;;;;11.00;6.83;;;1.20;99.90;;;;;;5204499;28;20218;-50
2022/12/08 01:07:30;;;;;;;12.10;6.83;;;1.20;99.90;;;;;;5220348;28;20465;-49
2022/12/08 01:10:00;;;;;;;12.97;7.33;;;1.20;99.90;;;;;;5209353;28;20191;-49
2022/12/08 01:12:31;;;;;;;7.20;6.50;;;1.30;99.90;;;;;;5199202;28;20180;-51
2022/12/08 01:15:02;;;;;;;14.77;6.83;;;1.30;99.90;;;;;;5214356;28;20176;-48
2022/12/08 01:17:33;;;;;;;9.00;6.50;;;1.30;99.90;;;;;;5189019;28;20686;-48
2022/12/08 01:20:05;;;;;;;8.00;5.40;;;1.40;99.90;;;;;;5221960;28;20476;-48
2022/12/08 01:22:36;;;;;;;9.30;6.80;;;1.40;99.90;;;;;;5220789;28;20426;-52
2022/12/08 01:25:07;;;;;;;18.70;7.90;;;1.40;99.90;;;;;;5192540;28;20977;-50
2022/12/08 01:27:38;;;;;;;10.73;6.53;;;1.50;99.90;;;;;;5214573;28;20222;-47
2022/12/08 01:30:09;;;;;;;14.03;7.57;;;1.50;99.90;;;;;;5200280;28;20439;-51
2022/12/08 01:32:40;;;;;;;12.80;7.20;;;1.40;99.90;;;;;;5217227;28;20180;-49
2022/12/08 01:35:12;;;;;;;11.57;6.87;;;1.50;99.90;;;;;;5223529;28;20449;-48
2022/12/08 01:37:43;;;;;;;12.00;7.70;;;1.50;99.90;;;;;;5210950;28;20707;-46
2022/12/08 01:40:24;;;;;;;14.37;8.03;;;1.50;99.90;;;;;;5216031;28;20435;-47
2022/12/08 01:42:55;;;;;;;15.10;8.20;;;1.50;99.90;;;;;;5214233;28;20179;-49
2022/12/08 01:45:31;;;;;;;10.70;7.40;;;1.50;99.90;;;;;;5219697;28;20430;-48
2022/12/08 01:48:07;;;;;;;13.37;8.40;;;1.50;99.90;;;;;;5225859;28;20206;-46
2022/12/08 01:50:41;;;;;;;12.33;8.10;;;1.50;99.90;;;;;;5202930;28;20430;-50
2022/12/08 01:53:18;;;;;;;12.80;9.00;;;1.60;99.90;;;;;;5211303;28;20468;-48
2022/12/08 01:56:01;;;;;;;12.30;8.27;;;1.70;99.90;;;;;;5212963;28;21029;-49
2022/12/08 01:58:36;;;;;;;12.43;8.60;;;1.70;99.90;;;;;;5188884;28;20470;-47
2022/12/08 02:01:09;;;;;;;24.60;9.00;;;1.80;99.90;;;;;;5227228;28;20463;-47
2022/12/08 02:03:52;;;;;;;13.27;8.23;;;1.60;99.90;;;;;;5225353;28;20515;-47
2022/12/08 02:06:24;;;;;;;12.63;7.83;;;1.60;99.90;;;;;;5209482;28;20521;-48
2022/12/08 02:08:55;;;;;;;16.83;9.00;;;1.60;99.90;;;;;;5204500;28;20761;-46
2022/12/08 02:11:26;;;;;;;16.50;9.07;;;1.60;99.90;;;;;;5208400;28;20977;-48
2022/12/08 02:13:59;;;;;;;14.50;8.60;;;1.60;99.90;;;;;;5223009;28;20421;-49
2022/12/08 02:16:40;;;;;;;17.70;9.37;;;1.50;99.90;;;;;;5220281;28;20264;-47
2022/12/08 02:19:35;;;;;;;17.00;10.10;;;1.50;99.90;;;;;;5219951;28;20790;-47
2022/12/08 02:22:12;;;;;;;14.27;9.20;;;1.50;99.90;;;;;;5218038;28;20520;-48
2022/12/08 02:24:49;;;;;;;15.33;7.60;;;1.50;99.90;;;;;;5199501;28;20422;-48
2022/12/08 02:27:39;;;;;;;14.10;9.17;;;1.50;99.90;;;;;;5226091;28;20526;-48
2022/12/08 02:30:36;;;;;;;18.57;8.93;;;1.60;99.90;;;;;;5206134;28;20468;-47
2022/12/08 02:33:34;;;;;;;16.20;9.40;;;1.50;99.90;;;;;;5215686;28;20441;-50
2022/12/08 02:36:23;;;;;;;16.07;9.50;;;1.20;99.90;;;;;;5209065;28;20448;-49
2022/12/08 02:39:21;;;;;;;13.70;9.87;;;1.30;99.90;;;;;;5212048;28;20466;-47
2022/12/08 02:41:57;;;;;;;13.17;8.07;;;1.20;99.90;;;;;;5216704;28;20409;-47
2022/12/08 02:44:51;;;;;;;16.80;10.77;;;1.20;99.90;;;;;;5226707;28;20424;-48
2022/12/08 02:47:24;;;;;;;15.17;9.93;;;1.20;99.90;;;;;;5204378;28;20443;-48
2022/12/08 02:49:56;;;;;;;13.73;8.93;;;1.20;99.90;;;;;;5204890;28;20433;-47
2022/12/08 02:52:26;;;;;;;16.90;9.63;;;1.10;99.90;;;;;;5217705;28;20441;-47
2022/12/08 02:55:05;;;;;;;15.83;9.03;;;1.20;99.90;;;;;;5221009;28;20492;-47
2022/12/08 02:57:54;;;;;;;11.83;8.57;;;1.20;99.90;;;;;;5215915;28;20207;-47
2022/12/08 03:00:28;;;;;;;11.97;7.53;;;1.30;99.90;;;;;;5204540;28;20434;-50
2022/12/08 03:03:08;;;;;;;10.53;7.77;;;1.20;99.90;;;;;;5210210;28;20429;-48
2022/12/08 03:05:51;;;;;;;11.63;7.43;;;1.20;99.90;;;;;;5207787;28;20471;-48
2022/12/08 03:09:09;;;;;;;9.70;8.37;;;1.20;99.90;;;;;;5222499;28;20472;-49
2022/12/08 03:11:49;;;;;;;11.13;7.80;;;1.20;99.90;;;;;;5146210;28;20511;-50
2022/12/08 03:14:21;;;;;;;15.33;8.70;;;1.30;99.90;;;;;;5138756;28;20439;-52
2022/12/08 03:16:55;;;;;;;11.53;8.37;;;1.40;99.90;;;;;;5185111;28;20485;-48
2022/12/08 03:19:31;;;;;;;12.73;7.63;;;1.40;99.90;;;;;;5198398;28;20521;-50
2022/12/08 03:22:05;;;;;;;12.27;6.80;;;1.30;99.90;;;;;;5202945;28;20433;-51
2022/12/08 03:24:38;;;;;;;16.27;7.27;;;1.40;99.90;;;;;;5219731;28;20468;-48
2022/12/08 03:27:17;;;;;;;9.80;6.80;;;1.30;99.90;;;;;;5222278;28;20480;-49
2022/12/08 03:29:52;;;;;;;5.57;5.07;;;1.40;99.90;;;;;;5209117;28;20460;-49
2022/12/08 03:32:48;;;;;;;10.30;5.90;;;1.30;99.90;;;;;;5215970;28;20999;-49
2022/12/08 03:35:31;;;;;;;7.47;6.07;;;1.40;99.90;;;;;;5208229;28;20449;-50
2022/12/08 03:38:06;;;;;;;8.87;6.20;;;1.50;99.90;;;;;;5196285;28;20466;-49
2022/12/08 03:40:37;;;;;;;10.87;5.90;;;1.40;99.90;;;;;;5220154;28;20804;-50
2022/12/08 03:43:08;;;;;;;5.83;5.33;;;1.30;99.90;;;;;;5210856;28;20441;-49
2022/12/08 03:45:39;;;;;;;6.03;5.23;;;1.20;99.90;;;;;;5203094;28;20774;-49
2022/12/08 03:48:10;;;;;;;6.30;5.67;;;1.20;99.90;;;;;;5210948;28;20461;-50
2022/12/08 03:50:40;;;;;;;7.00;5.53;;;1.20;99.90;;;;;;5204014;28;20182;-51
2022/12/08 03:53:11;;;;;;;5.50;5.00;;;1.40;99.90;;;;;;5221248;28;20222;-50
2022/12/08 03:55:42;;;;;;;7.67;6.10;;;1.30;99.90;;;;;;5207023;28;20557;-49
2022/12/08 03:58:12;;;;;;;7.70;6.10;;;1.20;99.90;;;;;;5206428;28;20703;-53
2022/12/08 04:00:43;;;;;;;8.37;6.00;;;1.30;99.90;;;;;;5207289;28;20648;-48
2022/12/08 04:03:14;;;;;;;7.20;6.10;;;1.40;99.90;;;;;;5214229;28;20179;-47
2022/12/08 04:05:45;;;;;;;7.43;6.10;;;1.30;99.90;;;;;;5216925;28;20429;-47
2022/12/08 04:08:16;;;;;;;7.50;6.60;;;1.20;99.90;;;;;;5198920;28;20226;-48
2022/12/08 04:10:47;;;;;;;9.37;7.30;;;1.30;99.90;;;;;;5212721;28;20441;-50
2022/12/08 04:13:17;;;;;;;9.90;7.60;;;1.20;99.90;;;;;;5190421;28;20193;-48
2022/12/08 04:15:48;;;;;;;13.23;7.47;;;1.20;99.90;;;;;;5201508;28;20550;-49
2022/12/08 04:18:19;;;;;;;13.13;9.27;;;1.30;99.90;;;;;;5206178;28;20259;-48
2022/12/08 04:20:50;;;;;;;9.33;7.63;;;1.20;99.90;;;;;;5225138;28;20813;-47
2022/12/08 04:23:21;;;;;;;10.50;8.40;;;1.20;99.90;;;;;;5193751;28;20187;-50
2022/12/08 04:25:52;;;;;;;10.17;8.53;;;1.20;99.90;;;;;;5207774;28;20183;-50
2022/12/08 04:28:23;;;;;;;14.73;9.37;;;1.20;99.90;;;;;;5224952;28;20257;-48
2022/12/08 04:30:54;;;;;;;14.60;10.27;;;1.20;99.90;;;;;;5208655;28;20461;-47
2022/12/08 04:33:25;;;;;;;14.27;9.70;;;1.30;99.90;;;;;;5210372;28;20195;-53
2022/12/08 04:35:55;;;;;;;14.37;10.53;;;1.30;99.90;;;;;;5223251;28;20437;-49
2022/12/08 04:38:27;;;;;;;14.80;9.97;;;1.30;99.90;;;;;;5221225;28;20271;-49
2022/12/08 04:40:58;;;;;;;15.37;9.67;;;1.30;99.90;;;;;;5196191;28;20248;-49
2022/12/08 04:43:29;;;;;;;16.73;9.70;;;1.20;99.90;;;;;;5210833;28;20437;-49
2022/12/08 04:45:59;;;;;;;11.70;9.10;;;1.10;99.90;;;;;;5206857;28;20176;-49
2022/12/08 04:48:30;;;;;;;14.20;8.77;;;1.10;99.90;;;;;;5211538;28;20457;-49
2022/12/08 04:51:01;;;;;;;12.90;9.47;;;1.10;99.90;;;;;;5230341;28;20212;-51
2022/12/08 04:53:32;;;;;;;12.87;9.87;;;1.10;99.90;;;;;;5198441;28;20183;-49
2022/12/08 04:56:03;;;;;;;14.13;9.43;;;1.10;99.90;;;;;;5229172;28;20461;-50
2022/12/08 04:58:34;;;;;;;14.23;10.00;;;1.10;99.90;;;;;;5211808;28;21047;-49
2022/12/08 05:01:04;;;;;;;14.47;10.07;;;1.20;99.90;;;;;;5222788;28;20248;-52
2022/12/08 05:03:35;;;;;;;16.13;10.50;;;1.20;99.90;;;;;;5198655;28;20641;-49
2022/12/08 05:06:06;;;;;;;19.57;12.50;;;1.20;99.90;;;;;;5207729;28;20178;-49
2022/12/08 05:08:37;;;;;;;19.20;10.80;;;1.20;99.90;;;;;;5202882;28;20205;-48
2022/12/08 05:11:10;;;;;;;17.37;11.50;;;1.20;99.90;;;;;;5187375;28;20191;-50
2022/12/08 05:13:41;;;;;;;19.47;12.10;;;1.20;99.90;;;;;;5207333;28;20445;-49
2022/12/08 05:16:13;;;;;;;21.17;12.60;;;1.30;99.90;;;;;;5210439;28;20433;-49
2022/12/08 05:18:44;;;;;;;17.50;11.40;;;1.30;99.90;;;;;;5224518;28;20217;-47
2022/12/08 05:21:15;;;;;;;14.30;10.33;;;1.30;99.90;;;;;;5204278;28;20446;-55
2022/12/08 05:23:45;;;;;;;15.97;10.57;;;1.30;99.90;;;;;;5209298;28;20239;-50
2022/12/08 05:26:16;;;;;;;29.17;13.40;;;1.40;99.90;;;;;;5206043;28;20198;-48
2022/12/08 05:28:47;;;;;;;19.20;12.03;;;1.40;99.90;;;;;;5204366;28;20575;-51
2022/12/08 05:31:17;;;;;;;23.40;13.93;;;1.40;99.90;;;;;;5216059;28;20198;-48
2022/12/08 05:33:49;;;;;;;20.27;13.30;;;1.40;99.90;;;;;;5227786;28;20190;-49
2022/12/08 05:36:20;;;;;;;19.73;13.60;;;1.40;99.90;;;;;;5218414;28;20207;-49
2022/12/08 05:38:51;;;;;;;36.33;16.60;;;1.40;99.90;;;;;;5216934;28;20476;-51
2022/12/08 05:41:22;;;;;;;20.37;11.90;;;1.40;99.90;;;;;;5219636;28;20438;-47
2022/12/08 05:43:52;;;;;;;18.83;13.23;;;1.50;99.90;;;;;;5205208;28;20187;-47
2022/12/08 05:46:23;;;;;;;30.60;15.23;;;1.50;99.90;;;;;;5208459;28;20187;-49
2022/12/08 05:48:54;;;;;;;33.10;16.00;;;1.50;99.90;;;;;;5215920;28;20562;-52
2022/12/08 05:51:25;;;;;;;19.67;13.27;;;1.40;99.90;;;;;;5195206;28;20275;-49
2022/12/08 05:53:56;;;;;;;37.77;18.00;;;1.40;99.90;;;;;;5201271;28;20188;-49
2022/12/08 05:56:27;;;;;;;25.83;12.83;;;1.30;99.90;;;;;;5220378;28;20446;-52
2022/12/08 05:58:58;;;;;;;29.87;16.17;;;1.20;99.90;;;;;;5223680;28;20473;-50
2022/12/08 06:01:30;;;;;;;39.97;17.63;;;1.20;99.90;;;;;;5224607;28;20703;-52
2022/12/08 06:04:02;;;;;;;58.53;22.67;;;1.20;99.90;;;;;;5222136;28;20655;-49
2022/12/08 06:06:34;;;;;;;38.00;18.80;;;1.30;99.90;;;;;;5224871;28;20434;-50
2022/12/08 06:09:05;;;;;;;34.60;16.60;;;1.40;99.90;;;;;;5204637;28;20484;-51
2022/12/08 06:11:36;;;;;;;36.23;17.47;;;1.40;99.90;;;;;;5213215;28;20452;-51
2022/12/08 06:14:11;;;;;;;47.20;20.50;;;1.40;99.90;;;;;;5207546;28;20437;-49
2022/12/08 06:16:42;;;;;;;29.83;18.17;;;1.50;99.90;;;;;;5204170;28;20189;-53
2022/12/08 06:19:13;;;;;;;33.80;17.33;;;1.50;99.90;;;;;;5226822;28;20446;-49
2022/12/08 06:21:43;;;;;;;32.10;17.33;;;1.50;99.90;;;;;;5205700;28;20483;-48
2022/12/08 06:24:14;;;;;;;31.80;18.27;;;1.50;99.90;;;;;;5209180;28;20962;-53
2022/12/08 06:26:45;;;;;;;29.00;15.20;;;1.50;99.90;;;;;;5222458;28;20654;-48
2022/12/08 06:29:16;;;;;;;31.57;17.03;;;1.50;99.90;;;;;;5193158;28;20265;-48
2022/12/08 06:31:47;;;;;;;31.87;16.70;;;1.50;99.90;;;;;;5164326;28;21050;-49
2022/12/08 06:34:18;;;;;;;28.17;16.07;;;1.60;99.90;;;;;;5165458;28;20443;-50
2022/12/08 06:36:49;;;;;;;29.03;15.90;;;1.60;99.90;;;;;;5180303;28;20618;-50
2022/12/08 06:39:20;;;;;;;23.70;15.07;;;1.60;99.90;;;;;;5201574;28;20191;-52
2022/12/08 06:44:41;;;;;;;44.20;19.60;;;1.70;99.90;;;;;;5186547;28;20434;-51
2022/12/08 06:47:12;;;;;;;39.77;18.63;;;1.70;99.90;;;;;;5185398;28;20474;-50
2022/12/08 06:49:42;;;;;;;46.50;19.80;;;1.70;99.90;;;;;;5188588;28;20187;-50
2022/12/08 06:52:14;;;;;;;52.10;21.73;;;1.60;99.90;;;;;;5204286;28;20529;-49
2022/12/08 06:54:44;;;;;;;58.03;20.80;;;1.60;99.90;;;;;;5187778;28;20188;-51
2022/12/08 06:57:17;;;;;;;31.23;17.43;;;1.60;99.90;;;;;;5186898;28;20473;-51
2022/12/08 06:59:48;;;;;;;33.70;17.13;;;1.60;99.90;;;;;;5184808;28;20176;-49
2022/12/08 07:02:18;;;;;;;35.47;17.57;;;1.70;99.90;;;;;;5188847;28;20474;-51
2022/12/08 07:04:50;;;;;;;52.80;21.40;;;1.70;99.90;;;;;;5204551;28;20241;-49
2022/12/08 07:07:21;;;;;;;40.23;17.57;;;1.70;99.90;;;;;;5200246;28;20200;-51
2022/12/08 07:09:52;;;;;;;56.53;23.23;;;1.70;99.90;;;;;;5181512;28;20442;-49
2022/12/08 07:12:23;;;;;;;75.30;24.63;;;1.80;99.90;;;;;;5183372;28;20200;-51
2022/12/08 07:14:54;;;;;;;43.80;18.10;;;1.80;99.90;;;;;;5201310;28;20783;-51
2022/12/08 07:17:24;;;;;;;51.20;19.30;;;1.80;99.90;;;;;;5190996;28;20228;-51
2022/12/08 07:19:55;;;;;;;43.87;18.27;;;1.90;99.90;;;;;;5192623;28;20439;-51
2022/12/08 07:22:26;;;;;;;46.83;20.30;;;1.90;99.90;;;;;;5183151;28;20187;-53
2022/12/08 07:24:57;;;;;;;38.00;19.10;;;1.90;99.90;;;;;;5184096;28;20217;-50
2022/12/08 07:27:27;;;;;;;39.33;19.83;;;2.00;99.90;;;;;;5196228;28;20220;-53
2022/12/08 07:29:58;;;;;;;26.53;16.80;;;2.00;99.90;;;;;;5195091;28;20641;-52
2022/12/08 07:32:29;;;;;;;46.83;21.17;;;2.00;99.90;;;;;;5216839;28;20643;-50
2022/12/08 07:35:00;;;;;;;65.70;24.23;;;2.00;99.90;;;;;;5224001;28;20194;-55
2022/12/08 07:37:32;;;;;;;42.27;18.77;;;2.10;99.90;;;;;;5209450;28;20369;-51
2022/12/08 07:40:05;;;;;;;48.57;21.67;;;2.00;99.90;;;;;;5198001;28;20222;-50
2022/12/08 07:42:36;;;;;;;33.03;19.40;;;2.10;99.90;;;;;;5205243;28;20497;-48
2022/12/08 07:45:07;;;;;;;47.33;21.80;;;2.10;99.90;;;;;;5192820;28;20462;-51
2022/12/08 07:47:38;;;;;;;38.03;18.37;;;2.10;99.90;;;;;;5208685;28;20214;-54
2022/12/08 07:50:09;;;;;;;36.73;18.77;;;2.10;99.90;;;;;;5210150;28;20965;-49
2022/12/08 07:52:39;;;;;;;44.83;19.80;;;2.10;99.90;;;;;;5221242;28;20198;-50
2022/12/08 07:55:10;;;;;;;50.37;21.70;;;2.20;99.90;;;;;;5196485;28;20673;-52
2022/12/08 07:57:42;;;;;;;57.03;24.73;;;2.20;99.90;;;;;;5204502;28;20223;-50
2022/12/08 08:00:14;;;;;;;41.93;18.40;;;2.20;99.90;;;;;;5201296;28;20529;-50
2022/12/08 08:02:45;;;;;;;57.07;23.53;;;2.40;99.90;;;;;;5236531;28;20425;-50
2022/12/08 08:05:16;;;;;;;41.27;19.20;;;2.40;99.90;;;;;;5196710;28;20452;-51
2022/12/08 08:07:47;;;;;;;56.63;24.23;;;2.30;99.90;;;;;;5226689;28;20203;-49
2022/12/08 08:10:17;;;;;;;62.27;22.90;;;2.40;99.90;;;;;;5207003;28;20178;-48
2022/12/08 08:12:48;;;;;;;50.30;22.63;;;2.40;99.90;;;;;;5228281;28;21000;-50
2022/12/08 08:15:20;;;;;;;48.63;20.13;;;2.30;99.90;;;;;;5211169;28;20198;-48
2022/12/08 08:17:50;;;;;;;44.87;18.00;;;2.30;99.90;;;;;;5224608;28;20211;-50
2022/12/08 08:20:21;;;;;;;39.93;18.40;;;2.40;99.90;;;;;;5237257;28;20476;-49
2022/12/08 08:22:52;;;;;;;56.33;22.63;;;2.40;99.90;;;;;;5228973;28;20210;-49
2022/12/08 08:25:23;;;;;;;43.47;20.67;;;2.40;99.90;;;;;;5219420;28;20490;-53
2022/12/08 08:27:54;;;;;;;59.73;25.60;;;2.70;99.90;;;;;;5235824;28;20525;-49
2022/12/08 08:30:25;;;;;;;38.87;20.70;;;2.60;99.90;;;;;;5202202;28;20187;-51
2022/12/08 08:32:58;;;;;;;34.53;18.73;;;2.40;99.90;;;;;;5202375;28;20437;-49
2022/12/08 08:35:29;;;;;;;65.63;26.00;;;2.40;99.90;;;;;;5206290;28;20587;-49
2022/12/08 08:38:00;;;;;;;49.03;22.90;;;2.40;99.90;;;;;;5222667;28;20476;-49
2022/12/08 08:40:30;;;;;;;40.00;19.33;;;2.50;99.90;;;;;;5228021;28;20437;-49
2022/12/08 08:43:05;;;;;;;52.57;23.70;;;2.70;99.90;;;;;;5213960;28;20316;-49
2022/12/08 08:45:38;;;;;;;41.17;18.77;;;2.60;99.90;;;;;;5228210;28;20232;-50
2022/12/08 08:48:09;;;;;;;53.53;21.43;;;2.60;99.90;;;;;;5210220;28;20456;-50
2022/12/08 08:50:40;;;;;;;33.73;17.83;;;2.60;99.90;;;;;;5221738;28;20764;-52
2022/12/08 08:53:11;;;;;;;52.07;22.07;;;2.60;99.90;;;;;;5224457;28;20704;-50
2022/12/08 08:55:42;;;;;;;33.53;17.63;;;2.70;99.90;;;;;;5204875;28;20180;-49
2022/12/08 08:58:13;;;;;;;57.90;22.90;;;2.70;99.90;;;;;;5230929;28;20476;-51
2022/12/08 09:00:44;;;;;;;47.80;23.07;;;2.70;99.90;;;;;;5211289;28;20603;-49
2022/12/08 09:03:17;;;;;;;46.03;21.30;;;2.80;99.90;;;;;;5224483;28;20537;-49
2022/12/08 09:05:49;;;;;;;48.30;24.00;;;2.90;99.90;;;;;;5205063;28;20957;-48
2022/12/08 09:08:20;;;;;;;46.93;21.00;;;3.00;99.90;;;;;;5203299;28;20458;-50
2022/12/08 09:10:51;;;;;;;45.90;19.40;;;3.10;99.90;;;;;;5213968;28;20451;-49
2022/12/08 09:13:22;;;;;;;34.53;19.10;;;3.10;99.90;;;;;;5225622;28;20195;-48
2022/12/08 09:15:53;;;;;;;37.83;19.40;;;3.20;99.90;;;;;;5233103;28;20188;-50
2022/12/08 09:18:24;;;;;;;41.57;21.80;;;3.20;99.90;;;;;;5227871;28;20531;-51
2022/12/08 09:20:55;;;;;;;44.00;20.80;;;3.20;99.90;;;;;;5207674;28;20953;-49
2022/12/08 09:23:26;;;;;;;31.40;17.60;;;3.10;99.90;;;;;;5208228;28;20467;-48
2022/12/08 09:25:57;;;;;;;33.63;17.37;;;3.10;99.90;;;;;;5234369;28;20475;-49
2022/12/08 09:28:28;;;;;;;32.57;17.73;;;3.20;99.90;;;;;;5225587;28;20210;-50
2022/12/08 09:30:59;;;;;;;31.97;17.27;;;3.20;99.90;;;;;;5201317;28;20195;-48
2022/12/08 09:33:30;;;;;;;25.23;14.90;;;3.20;99.90;;;;;;5229640;28;20193;-48
2022/12/08 09:36:03;;;;;;;42.83;21.90;;;3.10;99.90;;;;;;5203835;28;20496;-52
2022/12/08 09:38:34;;;;;;;40.50;18.80;;;3.10;99.90;;;;;;5200150;28;20530;-49
2022/12/08 09:41:22;;;;;;;27.30;16.77;;;3.00;99.90;;;;;;5207204;28;20975;-49
2022/12/08 09:44:15;;;;;;;27.97;16.60;;;3.10;99.90;;;;;;5217137;28;20925;-48
2022/12/08 09:46:50;;;;;;;45.47;18.93;;;3.10;99.90;;;;;;5201337;28;20466;-54
2022/12/08 09:49:44;;;;;;;29.60;17.53;;;3.10;99.90;;;;;;5210214;28;20460;-49
2022/12/08 09:52:23;;;;;;;41.40;21.57;;;3.10;99.90;;;;;;5204918;28;20449;-49
2022/12/08 09:54:57;;;;;;;53.70;22.63;;;3.00;99.90;;;;;;5196104;28;20839;-52
2022/12/08 09:57:30;;;;;;;36.77;19.17;;;3.00;99.90;;;;;;5216800;28;20464;-50
2022/12/08 10:00:05;;;;;;;31.40;15.30;;;3.10;99.90;;;;;;5184097;28;20427;-50
2022/12/08 10:02:35;;;;;;;32.30;17.40;;;3.00;99.90;;;;;;5191063;28;20440;-49
2022/12/08 10:05:13;;;;;;;50.53;23.93;;;3.10;99.90;;;;;;5201320;28;20822;-50
2022/12/08 10:08:04;;;;;;;48.73;22.40;;;3.20;99.90;;;;;;5202856;28;20214;-49
2022/12/08 10:10:45;;;;;;;34.00;18.27;;;3.20;99.90;;;;;;5197177;28;20889;-53
2022/12/08 10:13:31;;;;;;;30.93;17.13;;;3.40;99.90;;;;;;5211925;28;20439;-51
2022/12/08 10:16:30;;;;;;;32.70;18.23;;;3.30;99.90;;;;;;5208336;28;20440;-52
2022/12/08 10:19:13;;;;;;;37.40;18.60;;;3.20;99.90;;;;;;5222390;28;20467;-49
2022/12/08 10:21:47;;;;;;;52.07;21.07;;;3.20;99.90;;;;;;5198524;28;20511;-50
2022/12/08 10:24:24;;;;;;;28.90;17.20;;;3.10;99.90;;;;;;5205004;28;20506;-51
2022/12/08 10:26:55;;;;;;;30.10;18.20;;;3.10;99.90;;;;;;5209707;28;20964;-51
2022/12/08 10:29:27;;;;;;;36.10;18.93;;;3.10;99.90;;;;;;5193825;28;21001;-48
2022/12/08 10:31:59;;;;;;;41.87;21.93;;;3.20;99.90;;;;;;5194951;28;20436;-50
2022/12/08 10:34:29;;;;;;;38.97;17.27;;;3.20;99.90;;;;;;5217372;28;21748;-47
2022/12/08 10:37:09;;;;;;;40.87;19.87;;;3.20;99.90;;;;;;5210634;28;20517;-49
2022/12/08 10:39:44;;;;;;;30.87;16.57;;;3.30;99.90;;;;;;5231934;28;20186;-48
2022/12/08 10:42:20;;;;;;;26.83;15.30;;;3.30;99.90;;;;;;5197447;28;22885;-49
2022/12/08 10:45:24;;;;;;;33.27;17.33;;;3.40;99.90;;;;;;5199184;28;20441;-51
2022/12/08 10:48:00;;;;;;;26.43;15.10;;;3.40;99.90;;;;;;5215808;28;20461;-49
2022/12/08 10:50:41;;;;;;;33.40;17.37;;;3.40;99.90;;;;;;5221457;28;20483;-52
2022/12/08 10:53:18;;;;;;;38.60;16.10;;;3.40;99.90;;;;;;5208300;28;20524;-49
2022/12/08 10:55:56;;;;;;;33.50;17.63;;;3.30;99.90;;;;;;5221474;28;20433;-51
2022/12/08 10:58:34;;;;;;;27.93;15.30;;;3.40;99.90;;;;;;5205059;28;20537;-54
2022/12/08 11:01:18;;;;;;;23.13;14.80;;;3.40;99.90;;;;;;5203104;28;20486;-52
2022/12/08 11:04:04;;;;;;;31.77;16.43;;;3.50;99.90;;;;;;5215527;28;20429;-53
2022/12/08 11:06:37;;;;;;;21.80;14.63;;;3.40;99.90;;;;;;5209716;28;20435;-50
2022/12/08 11:09:17;;;;;;;32.60;15.70;;;3.40;99.90;;;;;;5202932;28;20474;-51
2022/12/08 11:11:57;;;;;;;29.37;14.53;;;3.40;99.90;;;;;;5211456;28;21028;-50
2022/12/08 11:14:41;;;;;;;38.93;18.00;;;3.30;99.90;;;;;;5189502;28;20551;-52
2022/12/08 11:17:21;;;;;;;35.70;18.13;;;3.30;99.90;;;;;;5193158;28;20469;-49
2022/12/08 11:20:01;;;;;;;29.97;16.30;;;3.30;99.90;;;;;;5188276;28;20441;-50
2022/12/08 11:22:35;;;;;;;19.40;12.77;;;3.30;99.90;;;;;;5217539;28;20505;-48
2022/12/08 11:25:22;;;;;;;19.37;12.07;;;3.20;99.90;;;;;;5196975;28;20433;-50
2022/12/08 11:27:58;;;;;;;34.13;14.80;;;3.30;99.90;;;;;;5203295;28;20469;-51
2022/12/08 11:30:42;;;;;;;19.17;11.17;;;3.20;99.90;;;;;;5207603;28;20454;-50
2022/12/08 11:33:20;;;;;;;22.43;13.20;;;3.20;99.90;;;;;;5213143;28;20513;-49
2022/12/08 11:36:09;;;;;;;24.60;11.73;;;3.10;99.90;;;;;;5198348;28;20441;-50
2022/12/08 11:38:48;;;;;;;22.60;11.83;;;3.00;99.90;;;;;;5216887;28;20461;-46
2022/12/08 11:41:22;;;;;;;21.50;13.30;;;3.00;99.90;;;;;;5204659;28;20438;-49
2022/12/08 11:44:24;;;;;;;22.27;10.87;;;3.00;99.90;;;;;;5203049;28;21036;-50
2022/12/08 11:47:00;;;;;;;34.50;13.43;;;3.10;99.90;;;;;;5196553;28;20466;-50
2022/12/08 11:49:37;;;;;;;23.13;13.30;;;2.90;99.90;;;;;;5202948;28;20430;-49
2022/12/08 11:52:27;;;;;;;16.00;11.40;;;2.90;99.90;;;;;;5209114;28;20435;-52
2022/12/08 11:55:29;;;;;;;28.57;16.43;;;2.80;99.90;;;;;;5194887;28;20517;-51
2022/12/08 11:58:36;;;;;;;19.60;12.80;;;3.00;99.90;;;;;;5218510;28;20492;-51
2022/12/08 12:01:20;;;;;;;28.33;14.13;;;3.10;99.90;;;;;;5200282;28;20439;-50
2022/12/08 12:03:59;;;;;;;24.63;13.57;;;3.10;99.90;;;;;;5190685;28;20980;-47
2022/12/08 12:07:02;;;;;;;21.30;12.37;;;3.10;99.90;;;;;;5197985;28;20438;-51
2022/12/08 12:10:07;;;;;;;29.20;15.13;;;3.10;99.90;;;;;;5189743;28;20433;-50
2022/12/08 12:13:12;;;;;;;25.43;14.60;;;3.10;99.90;;;;;;5150379;28;20528;-49
2022/12/08 12:15:57;;;;;;;23.17;13.77;;;3.10;99.90;;;;;;5218262;28;20487;-49
2022/12/08 12:18:45;;;;;;;24.63;13.77;;;3.20;99.90;;;;;;5188767;28;20484;-50
2022/12/08 12:21:32;;;;;;;20.30;13.03;;;3.20;99.90;;;;;;5201999;28;20519;-51
2022/12/08 12:24:07;;;;;;;16.27;11.77;;;3.30;99.90;;;;;;5220055;28;20434;-50
2022/12/08 12:27:14;;;;;;;18.97;11.60;;;3.30;99.90;;;;;;5208702;28;20533;-51
2022/12/08 12:29:55;;;;;;;22.20;12.47;;;3.30;99.90;;;;;;5177719;28;20434;-52
2022/12/08 12:32:59;;;;;;;25.90;14.20;;;3.20;99.90;;;;;;5201650;28;20492;-50
2022/12/08 12:35:44;;;;;;;20.70;13.30;;;3.20;99.90;;;;;;5187106;28;20436;-51
2022/12/08 12:41:15;;;;;;;24.40;13.90;;;3.30;99.90;;;;;;5215248;28;20985;-50
2022/12/08 12:44:05;;;;;;;28.20;15.10;;;3.30;99.90;;;;;;5216204;28;20490;-50
2022/12/08 12:46:45;;;;;;;21.43;13.90;;;3.50;99.90;;;;;;5196401;28;20821;-51
2022/12/08 12:49:37;;;;;;;19.17;11.80;;;3.50;99.90;;;;;;5221723;28;20549;-50
2022/12/08 12:52:16;;;;;;;20.13;13.50;;;3.40;99.90;;;;;;5197588;28;20546;-51
2022/12/08 12:54:50;;;;;;;19.47;12.10;;;3.50;99.90;;;;;;5198065;28;20787;-50
2022/12/08 12:57:24;;;;;;;20.83;12.47;;;3.60;99.90;;;;;;5192322;28;20474;-51
2022/12/08 12:59:54;;;;;;;18.23;11.90;;;3.60;99.90;;;;;;5195589;28;21065;-50
2022/12/08 13:02:38;;;;;;;21.03;11.83;;;3.70;99.90;;;;;;5200251;28;20516;-47
2022/12/08 13:05:15;;;;;;;23.60;14.03;;;3.60;99.90;;;;;;5196759;28;20180;-49
2022/12/08 13:07:49;;;;;;;22.33;13.30;;;3.60;99.90;;;;;;5199588;28;20469;-50
2022/12/08 13:10:28;;;;;;;27.33;15.50;;;3.60;99.90;;;;;;5199032;28;20430;-50
2022/12/08 13:13:11;;;;;;;22.83;12.50;;;3.60;99.90;;;;;;5220892;28;20423;-49
2022/12/08 13:15:45;;;;;;;22.20;12.93;;;3.50;99.90;;;;;;5212683;28;20806;-49
2022/12/08 13:18:20;;;;;;;17.27;12.90;;;3.50;99.90;;;;;;5195467;28;20479;-50
2022/12/08 13:20:59;;;;;;;16.60;12.97;;;3.50;99.90;;;;;;5192405;28;20463;-52
2022/12/08 13:23:36;;;;;;;15.17;9.83;;;3.50;99.90;;;;;;5197603;28;20454;-49
2022/12/08 13:26:17;;;;;;;18.73;10.07;;;3.50;99.90;;;;;;5204548;28;20447;-49
2022/12/08 13:28:57;;;;;;;21.53;10.00;;;3.40;99.90;;;;;;5204954;28;21084;-51
2022/12/08 13:31:38;;;;;;;10.00;8.10;;;3.30;99.90;;;;;;5194462;28;20435;-52